Airfield :
LOGIN :

Register | Disclaimer

   EN    FR    IT 

 










Legend :    VFR   Marginal VFR   IFR   Intensive IFR   Very Intensive IFR
Visi :
Ceiling :
>= 8 km
>= 3000ft
5 to 8 km
1000 to 3000 ft
1500m to 5 km
500 to 1000 ft
800 to 1500m
200 to 500 ft
< 800m
< 200 ft
Symbols :   Thunderstorms  Fog  Heavy snow  Heavy precipitations  Wind > 20 kt
SIGMETs :     Misc.  Thunderstorms  Icing  Turbulence  Mountain Waves  Volcanic Ashes







- Airport Elevation : 219 ft
- IATA code : DNR
- Download approach charts


LFRD - Dinard

CURRENT METAR :
  • 172300Z AUTO VRB02KT 5000 RA BR BKN009 OVC013 15/14 Q1007 TEMPO 2500 RA

EXPIRED METARs :
  • 172230Z AUTO 21004KT 6000 -RA BKN012 OVC022 15/14 Q1007 TEMPO 2500 RA BKN005
  • 172200Z AUTO 20008KT 6000 -RA FEW009 SCT034 BKN052 15/14 Q1008 TEMPO 2500 RA BKN005
  • 172130Z AUTO 19007KT 9999 -RA NSC 15/14 Q1008 TEMPO 2500 RA BKN005
  • 172100Z AUTO 20007KT CAVOK 15/14 Q1008 TEMPO 2500 RA BKN005
  • 172030Z AUTO 20009KT 9999 -RA NSC 15/14 Q1008 TEMPO RA BKN010
  • 172000Z AUTO 21008KT 9999 -RA FEW012 BKN120 16/15 Q1009 TEMPO RA BKN010

TAF AMD TAF LFRD
Valid from the 17 at 19:00 until the 18 at 18:00 UTC


171946Z 1719/1818 21010KT 9999 BKN015
TEMPO 1719/1723 5000 RA BKN010
BECMG 1721/1723 20005KT
TEMPO 1723/1803 2500 RA BKN005
BECMG 1803/1805 33010KT BKN020
TEMPO 1805/1808 BKN012
BECMG 1807/1809 27010KT
PROB30 1815/1818 5000 SHRA
ATIS : +33 2 99 16 81 50
No reported NOTAMs for that airfield.



MET'MAP, your aeronautical weather chart ! - Copyright ORBIFLY December 2007 - Disclaimer

ORBIFLY MET'MAP TEAM :

Programming & Development : Alexandra Zaïnal
Concept & Development : Baudouin d'Aumeries
Co-Development & Prog : Marc-Olivier Méhu
Technical & hardware support : Manuel Goepfert

Contact : metmap@orbifly.com




SOURCES & CREDITS :

   NOAA